Time;durP1;ratioP1;P1;durP2;ratioP2;P2;SDS_P1;SDS_P2;PMS_P1;PMS_P2;Temp;Humidity;BMP_temperature;BMP_pressure;BME280_temperature;BME280_humidity;BME280_pressure;Samples;Min_cycle;Max_cycle;Signal;HPM_P1;HPM_P2
2023/07/22 00:01:01;;;;;;;5.27;2.43;;;16.70;24.50;;;;;;5018368;28;20487;-66
2023/07/22 00:03:28;;;;;;;6.07;2.90;;;16.70;24.60;;;;;;5004551;28;20518;-65
2023/07/22 00:06:06;;;;;;;7.27;2.60;;;16.60;24.60;;;;;;5002180;28;20479;-65
2023/07/22 00:08:33;;;;;;;5.63;2.37;;;16.60;24.90;;;;;;5002697;28;20486;-65
2023/07/22 00:10:59;;;;;;;6.43;3.20;;;16.50;24.80;;;;;;5007761;28;20490;-65
2023/07/22 00:13:26;;;;;;;7.30;3.07;;;16.50;25.10;;;;;;5006174;28;20943;-65
2023/07/22 00:15:54;;;;;;;7.10;3.10;;;16.50;25.10;;;;;;5007098;28;20491;-65
2023/07/22 00:18:21;;;;;;;7.23;2.87;;;16.40;25.80;;;;;;4999606;28;20868;-65
2023/07/22 00:20:48;;;;;;;6.20;3.03;;;16.40;25.40;;;;;;5003093;28;20496;-65
2023/07/22 00:23:16;;;;;;;6.90;2.80;;;16.30;25.60;;;;;;5002180;28;20488;-65
2023/07/22 00:25:43;;;;;;;6.00;2.80;;;16.30;25.50;;;;;;5001936;28;20480;-65
2023/07/22 00:28:11;;;;;;;7.07;2.77;;;16.30;26.40;;;;;;5000744;28;20470;-66
2023/07/22 00:30:37;;;;;;;5.40;2.50;;;16.20;25.90;;;;;;5007271;28;20890;-65
2023/07/22 00:33:06;;;;;;;11.80;3.73;;;16.20;26.00;;;;;;5022284;28;20485;-65
2023/07/22 00:35:32;;;;;;;7.40;3.07;;;16.20;26.20;;;;;;5019350;28;20466;-66
2023/07/22 00:37:59;;;;;;;6.77;3.37;;;16.20;26.30;;;;;;5022758;28;20470;-66
2023/07/22 00:40:26;;;;;;;6.67;3.53;;;16.10;26.60;;;;;;5024109;28;20475;-65
2023/07/22 00:42:53;;;;;;;7.80;3.63;;;16.10;26.70;;;;;;5016953;28;20458;-65
2023/07/22 00:45:19;;;;;;;9.13;4.70;;;16.10;26.80;;;;;;5022384;28;20490;-65
2023/07/22 00:47:47;;;;;;;6.90;3.47;;;16.00;26.90;;;;;;5024060;28;20928;-65
2023/07/22 00:50:15;;;;;;;9.10;4.33;;;16.00;27.30;;;;;;5023595;28;20460;-65
2023/07/22 00:52:42;;;;;;;7.17;3.50;;;15.90;27.50;;;;;;5026764;28;20463;-65
2023/07/22 00:55:09;;;;;;;8.00;3.70;;;15.90;27.70;;;;;;5023516;28;20478;-65
2023/07/22 00:57:37;;;;;;;8.30;4.17;;;15.90;28.00;;;;;;5021883;28;20558;-65
2023/07/22 01:00:05;;;;;;;8.47;3.90;;;15.80;28.50;;;;;;5025152;28;20491;-65
2023/07/22 01:02:34;;;;;;;8.50;4.30;;;15.70;28.80;;;;;;5023523;28;20478;-65
2023/07/22 01:05:01;;;;;;;11.27;4.27;;;15.70;28.90;;;;;;5022336;28;20899;-65
2023/07/22 01:07:29;;;;;;;6.30;3.13;;;15.70;29.00;;;;;;5017066;28;20482;-65
2023/07/22 01:09:58;;;;;;;8.33;4.00;;;15.70;29.00;;;;;;5024511;28;20463;-65
2023/07/22 01:12:24;;;;;;;7.20;3.47;;;15.60;28.90;;;;;;5022438;28;20470;-65
2023/07/22 01:14:51;;;;;;;7.03;3.23;;;15.60;28.80;;;;;;5015608;28;20517;-65
2023/07/22 01:17:19;;;;;;;7.50;3.60;;;15.60;28.80;;;;;;5020922;28;20574;-65
2023/07/22 01:19:47;;;;;;;7.87;3.83;;;15.50;28.80;;;;;;5024654;28;20911;-65
2023/07/22 01:22:18;;;;;;;8.80;3.07;;;15.50;28.90;;;;;;5025195;28;20467;-65
2023/07/22 01:24:46;;;;;;;9.47;3.50;;;15.50;29.10;;;;;;5024239;28;20482;-65
2023/07/22 01:27:14;;;;;;;7.37;3.33;;;15.50;29.00;;;;;;5022277;28;20549;-65
2023/07/22 01:29:41;;;;;;;7.87;3.80;;;15.50;29.00;;;;;;5022882;28;20493;-65
2023/07/22 01:32:08;;;;;;;7.87;3.23;;;15.50;29.10;;;;;;5024564;28;20474;-65
2023/07/22 01:34:35;;;;;;;7.83;3.40;;;15.40;28.90;;;;;;5019188;28;20522;-65
2023/07/22 01:37:02;;;;;;;9.40;4.03;;;15.40;28.90;;;;;;5022924;28;20479;-65
2023/07/22 01:39:28;;;;;;;6.80;3.27;;;15.40;28.90;;;;;;5021076;28;20590;-65
2023/07/22 01:41:56;;;;;;;9.63;4.17;;;15.40;29.00;;;;;;5023835;28;20493;-65
2023/07/22 01:44:23;;;;;;;11.17;3.20;;;15.30;29.00;;;;;;5021516;28;20483;-65
2023/07/22 01:46:50;;;;;;;10.23;4.03;;;15.30;29.00;;;;;;5022937;28;20455;-65
2023/07/22 01:49:17;;;;;;;8.07;3.80;;;15.30;29.10;;;;;;5024796;28;20548;-65
2023/07/22 01:51:43;;;;;;;6.33;2.97;;;15.20;29.00;;;;;;5023416;28;20458;-65
2023/07/22 01:54:10;;;;;;;6.53;3.10;;;15.20;29.10;;;;;;5023860;28;20870;-65
2023/07/22 01:56:37;;;;;;;7.87;2.87;;;15.20;29.20;;;;;;5023891;28;20482;-65
2023/07/22 01:59:06;;;;;;;8.80;3.17;;;15.20;29.40;;;;;;5023227;28;20471;-65
2023/07/22 02:01:32;;;;;;;8.27;4.10;;;15.20;29.40;;;;;;5024966;28;20478;-65
2023/07/22 02:03:59;;;;;;;6.97;3.03;;;15.20;29.40;;;;;;5021721;28;20999;-65
2023/07/22 02:06:27;;;;;;;7.73;3.03;;;15.20;29.60;;;;;;5021479;28;20463;-65
2023/07/22 02:08:54;;;;;;;7.00;3.37;;;15.30;29.80;;;;;;5024337;28;20466;-65
2023/07/22 02:11:20;;;;;;;13.30;3.70;;;15.30;30.00;;;;;;5020178;28;20573;-65
2023/07/22 02:13:47;;;;;;;6.90;3.40;;;15.30;29.90;;;;;;5022044;28;20851;-65
2023/07/22 02:16:16;;;;;;;7.57;3.60;;;15.30;29.80;;;;;;5023904;28;20483;-65
2023/07/22 02:18:43;;;;;;;9.73;3.30;;;15.30;29.80;;;;;;5022121;28;20540;-65
2023/07/22 02:21:09;;;;;;;8.40;2.83;;;15.30;29.70;;;;;;5022813;28;20470;-65
2023/07/22 02:23:36;;;;;;;8.63;4.00;;;15.40;29.40;;;;;;5025089;28;20495;-65
2023/07/22 02:26:03;;;;;;;6.00;2.87;;;15.40;29.30;;;;;;5022430;28;20463;-65
2023/07/22 02:28:30;;;;;;;6.43;3.27;;;15.40;29.40;;;;;;5019591;28;20933;-65
2023/07/22 02:31:05;;;;;;;6.20;3.03;;;15.40;29.40;;;;;;5021513;28;20501;-65
2023/07/22 02:33:33;;;;;;;7.80;2.87;;;15.40;29.50;;;;;;5021242;28;20475;-65
2023/07/22 02:36:00;;;;;;;7.90;3.27;;;15.40;29.30;;;;;;5023666;28;20470;-65
2023/07/22 02:38:26;;;;;;;6.80;3.13;;;15.40;29.40;;;;;;5024523;28;20466;-65
2023/07/22 02:40:53;;;;;;;7.00;3.37;;;15.40;29.40;;;;;;5024123;28;20470;-65
2023/07/22 02:43:20;;;;;;;7.47;2.80;;;15.40;29.30;;;;;;5025396;28;20478;-65
2023/07/22 02:45:47;;;;;;;10.30;3.37;;;15.40;29.50;;;;;;5025920;28;20462;-65
2023/07/22 02:48:14;;;;;;;12.13;4.27;;;15.40;29.60;;;;;;5027225;28;20458;-66
2023/07/22 02:50:42;;;;;;;6.70;3.10;;;15.40;29.80;;;;;;5026096;28;20469;-66
2023/07/22 02:53:09;;;;;;;13.83;5.17;;;15.30;29.90;;;;;;5027537;28;20988;-65
2023/07/22 02:55:35;;;;;;;9.03;3.50;;;15.30;30.00;;;;;;5027350;28;20475;-65
2023/07/22 02:58:02;;;;;;;7.43;3.50;;;15.30;30.50;;;;;;5025406;28;20853;-65
2023/07/22 03:00:29;;;;;;;7.87;3.20;;;15.30;30.50;;;;;;5026973;28;20466;-65
2023/07/22 03:03:00;;;;;;;9.07;3.73;;;15.20;30.40;;;;;;5023289;28;20552;-65
2023/07/22 03:05:28;;;;;;;9.07;3.23;;;15.20;30.60;;;;;;5026734;28;20469;-65
2023/07/22 03:07:56;;;;;;;7.20;3.70;;;15.20;30.50;;;;;;5023854;28;20518;-65
2023/07/22 03:10:25;;;;;;;8.03;2.97;;;15.10;30.60;;;;;;5022208;28;20467;-65
2023/07/22 03:12:55;;;;;;;8.23;3.87;;;15.10;30.70;;;;;;5027836;28;20806;-65
2023/07/22 03:15:22;;;;;;;19.93;3.90;;;15.10;30.60;;;;;;5028533;28;20802;-65
2023/07/22 03:17:49;;;;;;;9.47;3.70;;;15.00;30.60;;;;;;5025855;28;20479;-65
2023/07/22 03:20:16;;;;;;;8.80;3.37;;;15.00;30.70;;;;;;5024244;28;20501;-65
2023/07/22 03:22:43;;;;;;;10.40;3.80;;;15.00;30.80;;;;;;5025075;28;20467;-65
2023/07/22 03:25:12;;;;;;;18.87;4.83;;;14.90;30.80;;;;;;5022557;28;20482;-65
2023/07/22 03:27:39;;;;;;;8.00;3.60;;;14.90;31.10;;;;;;5025437;28;20477;-64
2023/07/22 03:30:07;;;;;;;6.67;3.30;;;14.90;31.40;;;;;;5027832;28;20983;-67
2023/07/22 03:32:34;;;;;;;12.33;4.27;;;14.90;31.70;;;;;;5026682;28;20482;-67
2023/07/22 03:35:02;;;;;;;9.90;3.40;;;14.80;32.10;;;;;;5023453;28;20479;-64
2023/07/22 03:37:29;;;;;;;9.13;3.93;;;14.80;32.30;;;;;;5026050;28;20715;-64
2023/07/22 03:39:56;;;;;;;7.80;3.77;;;14.80;32.50;;;;;;5023019;28;20478;-64
2023/07/22 03:42:24;;;;;;;6.13;3.30;;;14.70;32.90;;;;;;5026061;28;20947;-64
2023/07/22 03:44:51;;;;;;;11.80;3.73;;;14.70;33.00;;;;;;5026370;28;20483;-64
2023/07/22 03:47:17;;;;;;;11.20;5.67;;;14.70;33.20;;;;;;5025598;28;20546;-64
2023/07/22 03:49:44;;;;;;;9.60;4.10;;;14.70;33.30;;;;;;5021715;28;20467;-64
2023/07/22 03:52:14;;;;;;;7.97;3.87;;;14.70;33.40;;;;;;5024691;28;20967;-64
2023/07/22 03:54:40;;;;;;;12.10;3.90;;;14.70;33.10;;;;;;5027402;28;20906;-64
2023/07/22 03:57:07;;;;;;;8.20;4.13;;;14.70;33.20;;;;;;5025926;28;20486;-64
2023/07/22 03:59:35;;;;;;;9.23;3.90;;;14.70;33.40;;;;;;5027379;28;20469;-64
2023/07/22 04:02:02;;;;;;;11.43;4.17;;;14.70;33.40;;;;;;5024687;28;20846;-64
2023/07/22 04:04:29;;;;;;;7.37;3.80;;;14.70;33.50;;;;;;5027254;28;20483;-64
2023/07/22 04:06:55;;;;;;;7.90;3.60;;;14.70;33.50;;;;;;5043365;28;20458;-64
2023/07/22 04:09:22;;;;;;;11.13;3.90;;;14.70;33.60;;;;;;5026660;28;20843;-65
2023/07/22 04:11:49;;;;;;;7.60;4.33;;;14.70;33.60;;;;;;5019941;28;20485;-64
2023/07/22 04:14:15;;;;;;;9.80;3.83;;;14.70;33.70;;;;;;5026140;28;20478;-64
2023/07/22 04:16:43;;;;;;;15.50;5.20;;;14.80;33.60;;;;;;5019861;28;21125;-64
2023/07/22 04:19:10;;;;;;;7.60;3.60;;;14.80;33.70;;;;;;5028515;28;20467;-64
2023/07/22 04:21:37;;;;;;;7.37;3.40;;;14.90;33.70;;;;;;5027960;28;20467;-64
2023/07/22 04:24:04;;;;;;;6.37;3.20;;;14.90;33.60;;;;;;5025968;28;20482;-64
2023/07/22 04:26:30;;;;;;;7.23;3.70;;;15.00;33.40;;;;;;5018477;28;21082;-64
2023/07/22 04:28:57;;;;;;;12.33;3.10;;;15.10;33.50;;;;;;5019991;28;20471;-64
2023/07/22 04:31:24;;;;;;;7.30;3.47;;;15.10;33.40;;;;;;5027215;28;20467;-64
2023/07/22 04:33:52;;;;;;;10.10;3.30;;;15.20;33.30;;;;;;5022209;28;20483;-64
2023/07/22 04:36:19;;;;;;;8.83;3.70;;;15.40;32.90;;;;;;5027733;28;20471;-65
2023/07/22 04:38:45;;;;;;;9.10;3.93;;;15.60;32.40;;;;;;5025707;28;20478;-65
2023/07/22 04:41:12;;;;;;;14.57;3.73;;;15.80;31.90;;;;;;5028873;28;20940;-66
2023/07/22 04:43:39;;;;;;;10.33;3.60;;;16.20;31.20;;;;;;5019123;28;20510;-64
2023/07/22 04:46:07;;;;;;;9.27;3.87;;;16.60;30.10;;;;;;5026158;28;20516;-66
2023/07/22 04:48:33;;;;;;;10.87;4.40;;;16.60;29.30;;;;;;5019171;28;20980;-64
2023/07/22 04:51:01;;;;;;;8.97;3.97;;;16.60;29.30;;;;;;5025461;28;20463;-66
2023/07/22 04:53:28;;;;;;;9.07;3.33;;;16.50;29.60;;;;;;5022555;28;20490;-66
2023/07/22 04:55:55;;;;;;;9.20;3.47;;;16.60;29.80;;;;;;5025871;28;20482;-66
2023/07/22 04:58:24;;;;;;;7.43;3.27;;;17.00;29.70;;;;;;5023173;28;20546;-66
2023/07/22 05:00:51;;;;;;;10.47;4.40;;;18.00;27.50;;;;;;5023924;28;20479;-65
2023/07/22 05:03:18;;;;;;;7.50;3.50;;;19.40;23.90;;;;;;5020580;28;20533;-66
2023/07/22 05:05:46;;;;;;;9.23;3.10;;;20.80;19.00;;;;;;5020769;28;20567;-65
2023/07/22 05:08:14;;;;;;;5.93;2.63;;;22.00;15.80;;;;;;5020186;28;20459;-64
2023/07/22 05:10:41;;;;;;;6.70;2.93;;;23.00;13.10;;;;;;5023491;28;20458;-64
2023/07/22 05:13:07;;;;;;;8.77;3.97;;;23.90;10.90;;;;;;5021852;28;20467;-64
2023/07/22 05:15:34;;;;;;;7.90;3.60;;;24.80;8.70;;;;;;5023926;28;20815;-65
2023/07/22 05:18:01;;;;;;;5.83;2.97;;;25.70;6.30;;;;;;5022750;28;20475;-65
2023/07/22 05:20:27;;;;;;;6.40;3.30;;;26.40;4.50;;;;;;5022433;28;20894;-65
2023/07/22 05:22:56;;;;;;;6.80;3.27;;;27.10;3.20;;;;;;5028754;28;20474;-65
2023/07/22 05:25:24;;;;;;;5.80;2.80;;;27.70;1.80;;;;;;5022760;28;20485;-65
2023/07/22 05:27:50;;;;;;;8.93;2.93;;;28.40;1.00;;;;;;5022926;28;20823;-65
2023/07/22 05:30:17;;;;;;;7.03;2.77;;;29.20;1.00;;;;;;5024792;28;20462;-65
2023/07/22 05:32:44;;;;;;;6.40;3.00;;;29.80;1.00;;;;;;4995499;28;20839;-65
2023/07/22 05:35:11;;;;;;;7.23;2.97;;;30.40;1.00;;;;;;5007997;28;20499;-65
2023/07/22 05:37:37;;;;;;;5.43;2.53;;;31.10;1.00;;;;;;5005720;28;20886;-65
2023/07/22 05:40:05;;;;;;;7.07;2.77;;;31.70;1.00;;;;;;5007366;28;20605;-65
2023/07/22 05:42:33;;;;;;;6.60;2.30;;;32.30;1.00;;;;;;5005014;28;20473;-65
2023/07/22 05:45:02;;;;;;;6.13;2.50;;;33.00;1.00;;;;;;5001910;28;21192;-65
2023/07/22 05:47:29;;;;;;;7.43;3.50;;;33.60;1.00;;;;;;5006475;28;20828;-65
2023/07/22 05:49:56;;;;;;;5.73;2.87;;;34.10;1.00;;;;;;5004138;28;20468;-65
2023/07/22 05:52:23;;;;;;;5.80;2.60;;;34.60;1.00;;;;;;5008018;28;20469;-65
2023/07/22 05:54:49;;;;;;;6.90;3.00;;;35.10;1.00;;;;;;5003822;28;20490;-65
2023/07/22 05:57:16;;;;;;;9.17;2.80;;;35.80;1.00;;;;;;4997481;28;20484;-65
2023/07/22 05:59:44;;;;;;;5.87;3.03;;;36.30;1.00;;;;;;5004838;28;20475;-64
2023/07/22 06:02:14;;;;;;;5.90;2.63;;;36.80;1.00;;;;;;5005056;28;20491;-65
2023/07/22 06:04:40;;;;;;;7.27;2.83;;;37.20;1.00;;;;;;5003734;28;20483;-65
2023/07/22 06:07:07;;;;;;;6.53;2.73;;;37.70;1.00;;;;;;5001381;28;21004;-65
2023/07/22 06:09:34;;;;;;;5.33;2.57;;;38.10;1.00;;;;;;5002016;28;20487;-65
2023/07/22 06:12:00;;;;;;;6.20;2.50;;;38.50;1.00;;;;;;5002347;28;20464;-66
2023/07/22 06:14:27;;;;;;;7.40;2.67;;;38.80;1.00;;;;;;5000698;28;20483;-65
2023/07/22 06:16:55;;;;;;;8.63;2.87;;;39.30;1.00;;;;;;5008804;28;20467;-65
2023/07/22 06:19:23;;;;;;;7.33;2.90;;;39.70;1.00;;;;;;5011687;28;20471;-65
2023/07/22 06:21:50;;;;;;;7.30;3.20;;;40.20;1.00;;;;;;5009777;28;20525;-66
2023/07/22 06:24:16;;;;;;;4.70;2.37;;;40.70;1.00;;;;;;5002492;28;20870;-64
2023/07/22 06:26:43;;;;;;;5.83;2.43;;;41.20;1.00;;;;;;5008546;28;20470;-64
2023/07/22 06:29:10;;;;;;;5.97;3.20;;;41.60;1.00;;;;;;5010192;28;20460;-65
2023/07/22 06:31:36;;;;;;;5.10;2.37;;;42.00;1.00;;;;;;5009411;28;20478;-65
2023/07/22 06:34:04;;;;;;;5.27;2.37;;;42.30;1.00;;;;;;5002535;28;20864;-65
2023/07/22 06:36:31;;;;;;;8.33;2.70;;;42.80;1.00;;;;;;5005264;28;20472;-66
2023/07/22 06:38:58;;;;;;;8.63;2.80;;;43.20;1.00;;;;;;5005706;28;20518;-65
2023/07/22 06:41:25;;;;;;;4.10;2.00;;;43.70;1.00;;;;;;5010893;28;20468;-66
2023/07/22 06:43:51;;;;;;;6.00;2.50;;;44.00;1.00;;;;;;5005317;28;20491;-66
2023/07/22 06:46:19;;;;;;;6.60;2.70;;;44.30;1.00;;;;;;5010569;28;21060;-64
2023/07/22 06:48:45;;;;;;;6.40;2.13;;;44.50;1.00;;;;;;5004443;28;20459;-64
2023/07/22 06:51:13;;;;;;;6.07;2.37;;;44.90;1.00;;;;;;4999615;28;20484;-66
2023/07/22 06:53:40;;;;;;;5.00;2.07;;;45.20;1.00;;;;;;5005591;28;20483;-66
2023/07/22 06:56:07;;;;;;;5.03;2.20;;;45.40;1.00;;;;;;5000695;28;20468;-65
2023/07/22 06:58:34;;;;;;;9.73;2.53;;;45.70;1.00;;;;;;5002642;28;20476;-66
2023/07/22 07:01:00;;;;;;;5.13;2.10;;;45.70;1.00;;;;;;5011442;28;20999;-65
2023/07/22 07:03:27;;;;;;;5.80;2.90;;;45.90;1.00;;;;;;5019320;28;20493;-64
2023/07/22 07:05:54;;;;;;;5.20;2.73;;;46.40;1.00;;;;;;5020633;28;20474;-64
2023/07/22 07:08:23;;;;;;;4.83;2.13;;;46.70;1.00;;;;;;5028460;28;20451;-64
2023/07/22 07:10:50;;;;;;;5.37;2.30;;;47.00;1.00;;;;;;5026178;28;20463;-64
2023/07/22 07:13:17;;;;;;;4.33;2.37;;;47.40;1.00;;;;;;5029294;28;20466;-65
2023/07/22 07:15:48;;;;;;;5.37;2.07;;;47.80;1.00;;;;;;5024786;28;20474;-65
2023/07/22 07:18:14;;;;;;;4.53;2.20;;;48.10;1.00;;;;;;5039346;22;20536;-63
2023/07/22 07:20:41;;;;;;;5.37;2.00;;;48.30;1.00;;;;;;5024708;28;20470;-63
2023/07/22 07:23:08;;;;;;;5.10;2.07;;;48.80;1.00;;;;;;5022996;28;21003;-63
2023/07/22 07:25:36;;;;;;;6.00;2.93;;;49.10;1.00;;;;;;5025424;28;20466;-64
2023/07/22 07:28:04;;;;;;;6.40;2.17;;;49.30;1.00;;;;;;5023978;28;20456;-63
2023/07/22 07:30:30;;;;;;;5.70;1.90;;;49.60;1.00;;;;;;5025631;28;20470;-65
2023/07/22 07:32:57;;;;;;;3.93;1.67;;;49.80;1.00;;;;;;5020542;28;20471;-65
2023/07/22 07:35:24;;;;;;;4.73;1.67;;;50.10;1.00;;;;;;5025798;28;20490;-66
2023/07/22 07:37:50;;;;;;;6.03;2.00;;;50.40;1.00;;;;;;5025551;28;20569;-66
2023/07/22 07:40:17;;;;;;;7.20;1.70;;;50.60;1.00;;;;;;5019383;28;20470;-66
2023/07/22 07:42:45;;;;;;;6.73;2.13;;;51.00;1.00;;;;;;5024903;28;20458;-66
2023/07/22 07:45:12;;;;;;;4.30;1.73;;;51.20;1.00;;;;;;5023645;28;21017;-66
2023/07/22 07:47:39;;;;;;;3.97;1.60;;;51.10;1.00;;;;;;5027940;28;20470;-65
2023/07/22 07:50:07;;;;;;;4.70;1.53;;;51.10;1.00;;;;;;5025318;28;20470;-66
2023/07/22 07:52:34;;;;;;;4.07;1.70;;;51.50;1.00;;;;;;5021653;28;20968;-65
2023/07/22 07:55:01;;;;;;;3.73;1.43;;;51.50;1.00;;;;;;5016807;28;20493;-66
2023/07/22 07:57:28;;;;;;;5.10;1.93;;;51.60;1.00;;;;;;5018911;28;20478;-65
2023/07/22 07:59:56;;;;;;;4.97;1.90;;;51.90;1.00;;;;;;5018525;28;20473;-66
2023/07/22 08:02:23;;;;;;;6.20;1.80;;;52.40;1.00;;;;;;5022529;28;20482;-66
2023/07/22 08:04:49;;;;;;;5.63;1.90;;;52.70;1.00;;;;;;5021083;28;20993;-66
2023/07/22 08:07:17;;;;;;;7.60;1.50;;;53.00;1.00;;;;;;5024284;28;21017;-66
2023/07/22 08:09:48;;;;;;;4.10;1.50;;;53.20;1.00;;;;;;5021438;28;20462;-65
2023/07/22 08:12:14;;;;;;;5.27;2.33;;;53.50;1.00;;;;;;5018355;28;20470;-67
2023/07/22 08:14:41;;;;;;;6.03;1.70;;;53.60;1.00;;;;;;5021808;28;20864;-67
2023/07/22 08:17:09;;;;;;;5.53;1.57;;;53.50;1.00;;;;;;5024278;28;20467;-68
2023/07/22 08:19:36;;;;;;;3.73;1.30;;;53.60;1.00;;;;;;5022530;28;20471;-68
2023/07/22 08:22:03;;;;;;;4.57;1.40;;;53.80;1.00;;;;;;5018243;28;20991;-66
2023/07/22 08:24:30;;;;;;;4.43;1.53;;;54.00;1.00;;;;;;5022486;28;21339;-68
2023/07/22 08:26:57;;;;;;;4.50;1.40;;;53.90;1.00;;;;;;5027264;28;20497;-66
2023/07/22 08:29:23;;;;;;;5.13;1.67;;;53.90;1.00;;;;;;5026678;28;20478;-68
2023/07/22 08:31:50;;;;;;;4.03;1.60;;;54.00;1.00;;;;;;5025319;28;20480;-68
2023/07/22 08:34:18;;;;;;;5.50;1.37;;;54.30;1.00;;;;;;5025635;28;20883;-68
2023/07/22 08:36:45;;;;;;;3.33;1.40;;;54.50;1.00;;;;;;5022045;28;20523;-66
2023/07/22 08:39:12;;;;;;;4.03;1.80;;;54.80;1.00;;;;;;5022830;28;20475;-67
2023/07/22 08:41:39;;;;;;;4.57;1.30;;;54.90;1.00;;;;;;5021780;28;20528;-67
2023/07/22 08:44:09;;;;;;;3.43;1.50;;;54.90;1.00;;;;;;5025907;28;20494;-67
2023/07/22 08:46:38;;;;;;;3.90;1.57;;;54.90;1.00;;;;;;5023454;28;20462;-68
2023/07/22 08:49:06;;;;;;;3.73;1.33;;;55.20;1.00;;;;;;5024401;28;20475;-68
2023/07/22 08:51:37;;;;;;;3.83;1.23;;;55.20;1.00;;;;;;5021075;28;20469;-67
2023/07/22 08:54:04;;;;;;;5.57;1.30;;;55.50;1.00;;;;;;5025479;28;20569;-67
2023/07/22 08:56:31;;;;;;;3.60;1.43;;;55.70;1.00;;;;;;5027154;28;20199;-67
2023/07/22 08:58:59;;;;;;;5.17;1.70;;;55.70;1.00;;;;;;5021792;28;20471;-68
2023/07/22 09:01:26;;;;;;;3.83;1.40;;;55.30;1.00;;;;;;5014782;28;20485;-67
2023/07/22 09:03:56;;;;;;;4.20;1.70;;;55.40;1.00;;;;;;5027232;28;20898;-66
2023/07/22 09:06:23;;;;;;;3.70;1.50;;;55.80;1.00;;;;;;5021139;28;20466;-68
2023/07/22 09:08:52;;;;;;;4.20;1.60;;;55.60;1.00;;;;;;5022235;28;20497;-67
2023/07/22 09:11:21;;;;;;;3.80;1.40;;;55.40;1.00;;;;;;5019662;28;20475;-68
2023/07/22 09:13:49;;;;;;;3.60;1.30;;;55.00;1.00;;;;;;5026277;28;20504;-68
2023/07/22 09:16:18;;;;;;;4.50;1.57;;;54.70;1.00;;;;;;5022771;28;20477;-68
2023/07/22 09:18:44;;;;;;;4.73;1.40;;;54.90;1.00;;;;;;5018164;28;20474;-67
2023/07/22 09:21:11;;;;;;;4.03;1.50;;;53.80;1.00;;;;;;5019964;28;20935;-68
2023/07/22 09:23:40;;;;;;;4.77;1.30;;;53.40;1.00;;;;;;5022956;28;20486;-67
2023/07/22 09:26:11;;;;;;;3.90;1.10;;;53.10;1.00;;;;;;5020858;28;20946;-68
2023/07/22 09:28:55;;;;;;;2.97;1.07;;;53.20;1.00;;;;;;5025260;28;20489;-67
2023/07/22 09:31:22;;;;;;;4.27;1.40;;;53.60;1.00;;;;;;5019993;28;20505;-67
2023/07/22 09:33:50;;;;;;;3.20;1.20;;;53.40;1.00;;;;;;5019173;28;20577;-67
2023/07/22 09:36:17;;;;;;;4.63;1.60;;;53.20;1.00;;;;;;5018938;28;20467;-67
2023/07/22 09:38:44;;;;;;;4.10;1.70;;;53.00;1.00;;;;;;5023067;28;20469;-67
2023/07/22 09:41:13;;;;;;;4.90;1.67;;;53.20;1.00;;;;;;5020347;28;20469;-68
2023/07/22 09:43:40;;;;;;;3.20;1.23;;;53.20;1.00;;;;;;5026010;23;20535;-66
2023/07/22 09:46:08;;;;;;;3.60;1.30;;;53.40;1.00;;;;;;4999954;28;20467;-65
2023/07/22 09:48:41;;;;;;;3.80;1.47;;;52.70;1.00;;;;;;5004224;28;20488;-64
2023/07/22 09:51:14;;;;;;;3.63;1.40;;;50.50;1.00;;;;;;5004499;28;20504;-64
2023/07/22 09:53:45;;;;;;;3.90;1.57;;;48.00;1.00;;;;;;5006320;28;20492;-65
2023/07/22 09:56:14;;;;;;;3.80;1.30;;;46.10;1.00;;;;;;5005526;28;20504;-65
2023/07/22 09:58:41;;;;;;;5.40;1.57;;;44.30;1.00;;;;;;5006083;28;20463;-65
2023/07/22 10:01:09;;;;;;;5.57;1.60;;;42.70;1.00;;;;;;5001206;28;20531;-65
2023/07/22 10:03:39;;;;;;;3.77;1.50;;;41.30;1.00;;;;;;5003647;28;20480;-66
2023/07/22 10:06:07;;;;;;;4.00;1.30;;;39.90;1.00;;;;;;5002692;28;20460;-67
2023/07/22 10:08:36;;;;;;;4.03;1.40;;;38.70;1.00;;;;;;5008538;28;20484;-67
2023/07/22 10:11:06;;;;;;;6.80;1.60;;;37.50;1.00;;;;;;5003049;28;20488;-65
2023/07/22 10:13:34;;;;;;;4.03;1.73;;;36.50;1.00;;;;;;5004972;28;20939;-65
2023/07/22 10:16:02;;;;;;;4.93;1.60;;;35.80;1.00;;;;;;5006008;28;20940;-65
2023/07/22 10:18:29;;;;;;;5.77;1.47;;;35.20;1.00;;;;;;5003992;28;20528;-66
2023/07/22 10:20:57;;;;;;;4.60;1.30;;;34.70;1.00;;;;;;5003168;28;20461;-66
2023/07/22 10:23:26;;;;;;;4.70;1.50;;;34.30;1.00;;;;;;5006666;28;20507;-65
2023/07/22 10:25:53;;;;;;;4.23;1.33;;;33.80;1.00;;;;;;4999708;28;20471;-65
2023/07/22 10:28:21;;;;;;;3.60;1.00;;;33.30;1.00;;;;;;5010061;28;20974;-66
2023/07/22 10:30:49;;;;;;;5.10;1.60;;;32.80;1.00;;;;;;5004019;28;20903;-66
2023/07/22 10:33:17;;;;;;;6.43;2.07;;;32.60;1.00;;;;;;5006288;28;20490;-65
2023/07/22 10:36:03;;;;;;;4.43;1.73;;;32.50;1.00;;;;;;5005527;28;20464;-65
2023/07/22 10:38:30;;;;;;;5.07;1.90;;;32.30;1.00;;;;;;5005884;28;20464;-66
2023/07/22 10:40:57;;;;;;;5.77;1.50;;;31.80;1.00;;;;;;5005748;28;20464;-66
2023/07/22 10:43:26;;;;;;;5.60;1.80;;;31.30;1.00;;;;;;5003646;28;20495;-67
2023/07/22 10:45:56;;;;;;;5.20;1.67;;;30.90;1.00;;;;;;5007229;28;20507;-66
2023/07/22 10:48:26;;;;;;;4.57;1.70;;;30.50;1.00;;;;;;5005907;28;20467;-66
2023/07/22 10:50:54;;;;;;;5.30;1.30;;;30.20;1.00;;;;;;5006035;28;20478;-67
2023/07/22 10:53:30;;;;;;;4.70;1.50;;;30.10;1.00;;;;;;4995247;28;20487;-64
2023/07/22 10:56:12;;;;;;;5.37;1.50;;;29.90;1.00;;;;;;5004633;28;20498;-63
2023/07/22 10:58:58;;;;;;;6.00;1.83;;;29.80;1.00;;;;;;5000201;28;20491;-63
2023/07/22 11:01:33;;;;;;;4.70;1.47;;;29.70;1.00;;;;;;5007883;28;20471;-64
2023/07/22 11:04:31;;;;;;;4.50;1.60;;;29.70;1.00;;;;;;5007130;28;20992;-65
2023/07/22 11:07:00;;;;;;;4.20;1.83;;;29.60;1.00;;;;;;5004156;28;20468;-65
2023/07/22 11:09:41;;;;;;;4.23;1.50;;;29.60;1.00;;;;;;5005507;28;20514;-64
2023/07/22 11:12:11;;;;;;;5.40;1.93;;;29.60;1.00;;;;;;5001772;28;20521;-65
2023/07/22 11:14:46;;;;;;;5.17;1.70;;;29.70;1.00;;;;;;5007515;28;20573;-64
2023/07/22 11:17:14;;;;;;;4.20;1.63;;;29.40;1.00;;;;;;5005860;28;20921;-64
2023/07/22 11:19:41;;;;;;;5.17;2.10;;;29.20;1.00;;;;;;5004161;28;20463;-64
2023/07/22 11:22:08;;;;;;;5.07;1.90;;;29.00;1.00;;;;;;5007036;28;20483;-65
2023/07/22 11:24:36;;;;;;;4.50;1.50;;;28.80;1.00;;;;;;5005568;28;20476;-65
2023/07/22 11:27:05;;;;;;;5.00;2.13;;;28.60;1.00;;;;;;5002827;28;20477;-65
2023/07/22 11:29:32;;;;;;;5.20;1.67;;;28.50;1.00;;;;;;5005117;28;20526;-65
2023/07/22 11:31:59;;;;;;;4.50;1.87;;;28.40;1.00;;;;;;5002451;28;20484;-63
2023/07/22 11:34:27;;;;;;;5.30;1.93;;;28.50;1.00;;;;;;5004036;28;20518;-65
2023/07/22 11:36:56;;;;;;;5.37;1.90;;;28.60;1.00;;;;;;5006948;28;20471;-66
2023/07/22 11:39:24;;;;;;;4.80;1.83;;;28.70;1.00;;;;;;5004027;28;20483;-66
2023/07/22 11:41:52;;;;;;;4.40;1.50;;;28.70;1.00;;;;;;5005656;28;20475;-66
2023/07/22 11:44:21;;;;;;;4.10;1.60;;;28.80;1.00;;;;;;5004773;28;20490;-64
2023/07/22 11:46:49;;;;;;;6.50;2.20;;;28.80;1.00;;;;;;5003480;28;20483;-64
2023/07/22 11:49:24;;;;;;;4.50;1.50;;;28.90;1.00;;;;;;5000844;28;20566;-64
2023/07/22 11:51:54;;;;;;;4.60;1.60;;;28.80;1.00;;;;;;5000458;28;21050;-64
2023/07/22 11:54:22;;;;;;;5.20;1.90;;;28.70;1.00;;;;;;5008091;28;20484;-64
2023/07/22 11:56:49;;;;;;;4.60;1.80;;;28.60;1.00;;;;;;5002356;28;20953;-65
2023/07/22 11:59:16;;;;;;;4.97;1.73;;;28.60;1.00;;;;;;5006302;28;20466;-65
2023/07/22 12:01:45;;;;;;;5.20;2.07;;;28.40;1.00;;;;;;5007233;28;20875;-65
2023/07/22 12:04:13;;;;;;;4.40;1.60;;;28.30;1.00;;;;;;5005832;28;21241;-64
2023/07/22 12:06:40;;;;;;;3.90;1.40;;;28.20;1.00;;;;;;5005317;28;20479;-65
2023/07/22 12:09:09;;;;;;;4.77;1.80;;;28.20;1.00;;;;;;5003574;28;20498;-64
2023/07/22 12:11:36;;;;;;;7.90;2.00;;;28.00;1.00;;;;;;4999374;28;21005;-65
2023/07/22 12:14:10;;;;;;;5.50;1.80;;;27.90;1.00;;;;;;5002858;28;20492;-65
2023/07/22 12:16:39;;;;;;;5.20;1.83;;;27.80;1.00;;;;;;5004189;28;20470;-64
2023/07/22 12:19:06;;;;;;;6.23;2.13;;;27.60;1.00;;;;;;5004309;28;20493;-65
2023/07/22 12:21:34;;;;;;;4.60;1.90;;;27.50;1.00;;;;;;4997450;28;20463;-65
2023/07/22 12:24:02;;;;;;;7.00;1.80;;;27.50;1.00;;;;;;4999071;28;20483;-66
2023/07/22 12:26:31;;;;;;;4.70;1.67;;;27.50;1.00;;;;;;4997519;28;20500;-65
2023/07/22 12:28:57;;;;;;;5.50;2.07;;;27.50;1.00;;;;;;5001020;28;20475;-64
2023/07/22 12:31:24;;;;;;;5.07;2.13;;;27.50;1.00;;;;;;5000874;28;20879;-65
2023/07/22 12:33:51;;;;;;;7.33;2.10;;;27.50;1.00;;;;;;4995490;28;20489;-65
2023/07/22 12:36:17;;;;;;;4.63;1.90;;;27.30;1.00;;;;;;4999502;28;20467;-64
2023/07/22 12:38:44;;;;;;;6.80;1.87;;;27.30;1.00;;;;;;5003482;28;20471;-66
2023/07/22 12:41:11;;;;;;;5.17;2.07;;;27.20;1.00;;;;;;5002918;28;20460;-65
2023/07/22 12:43:39;;;;;;;4.70;1.80;;;27.20;1.00;;;;;;5001914;28;20552;-65
2023/07/22 12:46:06;;;;;;;5.97;2.67;;;27.20;1.00;;;;;;5018767;23;20492;-70
2023/07/22 12:48:32;;;;;;;21.57;3.07;;;27.20;1.00;;;;;;5017381;28;20558;-70
2023/07/22 12:51:00;;;;;;;5.83;1.93;;;27.20;1.00;;;;;;5021388;28;20486;-70
2023/07/22 12:53:27;;;;;;;5.00;2.30;;;27.20;1.00;;;;;;5020252;28;20585;-70
2023/07/22 12:55:54;;;;;;;5.27;2.03;;;27.20;1.00;;;;;;5021429;28;20474;-69